createdAt,value
2023-05-16T00:00:54.755Z,100110.97
2023-05-16T00:01:56.971Z,100103.77
2023-05-16T00:02:59.873Z,100104.86
2023-05-16T00:04:02.750Z,100105.83
2023-05-16T00:05:06.615Z,100108.75
2023-05-16T00:06:09.401Z,100108.75
2023-05-16T00:07:12.093Z,100099.95
2023-05-16T00:08:14.126Z,100099.25
2023-05-16T00:09:16.608Z,100099.25
2023-05-16T00:10:18.935Z,100101.94
2023-05-16T00:11:21.141Z,100101.94
2023-05-16T00:12:23.691Z,100102.17
2023-05-16T00:13:25.877Z,100099.83
2023-05-16T00:14:28.029Z,100104.34
2023-05-16T00:15:30.389Z,100097.27
2023-05-16T00:16:32.567Z,100108.00
2023-05-16T00:17:35.405Z,100105.55
2023-05-16T00:18:38.077Z,100109.20
2023-05-16T00:19:40.335Z,100101.42
2023-05-16T00:20:42.701Z,100101.77
2023-05-16T00:21:44.937Z,100105.54
2023-05-16T00:22:46.933Z,100109.27
2023-05-16T00:23:48.920Z,100112.08
2023-05-16T00:24:51.172Z,100106.97
2023-05-16T00:25:53.274Z,100114.28
2023-05-16T00:26:55.840Z,100105.48
2023-05-16T00:27:57.971Z,100108.17
2023-05-16T00:28:59.916Z,100113.77
2023-05-16T00:30:03.314Z,100111.83
2023-05-16T00:31:05.559Z,100105.48
2023-05-16T00:32:07.965Z,100105.83
2023-05-16T00:33:10.039Z,100106.69
2023-05-16T00:34:12.367Z,100115.48
2023-05-16T00:35:14.551Z,100117.42
2023-05-16T00:36:18.017Z,100118.28
2023-05-16T00:37:23.176Z,100123.98
2023-05-16T00:38:25.454Z,100123.16
2023-05-16T00:39:27.656Z,100116.20
2023-05-16T00:40:32.147Z,100116.20
2023-05-16T00:41:34.457Z,100116.20
2023-05-16T00:42:37.466Z,100119.96
2023-05-16T00:43:40.215Z,100113.86
2023-05-16T00:44:42.254Z,100121.67
2023-05-16T00:45:45.065Z,100125.67
2023-05-16T00:46:47.601Z,100117.51
2023-05-16T00:47:51.081Z,100116.66
2023-05-16T00:48:53.855Z,100123.21
2023-05-16T00:49:56.127Z,100120.53
2023-05-16T00:50:58.540Z,100118.81
2023-05-16T00:52:01.225Z,100118.00
2023-05-16T00:53:03.870Z,100118.81
2023-05-16T00:54:07.629Z,100125.78
2023-05-16T00:55:09.853Z,100127.61
2023-05-16T00:56:12.323Z,100121.27
2023-05-16T00:57:15.250Z,100125.78
2023-05-16T00:58:19.903Z,100120.53
2023-05-16T00:59:23.699Z,100126.75
2023-05-16T01:00:26.606Z,100121.50
2023-05-16T01:01:31.505Z,100124.44
2023-05-16T01:02:34.858Z,100127.23
2023-05-16T01:03:38.501Z,100117.36
2023-05-16T01:04:43.012Z,100120.27
2023-05-16T01:05:46.367Z,100122.95
2023-05-16T01:06:49.399Z,100116.73
2023-05-16T01:07:51.457Z,100115.88
2023-05-16T01:08:53.456Z,100112.34
2023-05-16T01:09:55.545Z,100115.36
2023-05-16T01:11:22.972Z,100111.70
2023-05-16T01:12:31.590Z,100111.22
2023-05-16T01:13:40.126Z,100119.75
2023-05-16T01:14:58.206Z,100116.33
2023-05-16T01:16:06.675Z,100107.57
2023-05-16T01:17:22.113Z,100109.51
2023-05-16T01:18:43.404Z,100107.69
2023-05-16T01:19:54.008Z,100107.80
2023-05-16T01:21:02.949Z,100111.33
2023-05-16T01:23:38.510Z,100102.58
2023-05-16T01:24:50.169Z,100108.24
2023-05-16T01:26:13.983Z,100111.66
2023-05-16T01:27:16.796Z,100113.38
2023-05-16T01:28:19.422Z,100115.95
2023-05-16T01:29:21.584Z,100114.13
2023-05-16T01:30:24.188Z,100114.23
2023-05-16T01:31:26.207Z,100111.55
2023-05-16T01:32:28.914Z,100108.02
2023-05-16T01:33:31.035Z,100109.95
2023-05-16T01:34:33.838Z,100108.47
2023-05-16T01:37:15.276Z,100112.19
2023-05-16T01:41:28.658Z,100107.86
2023-05-16T01:42:34.391Z,100114.48
2023-05-16T01:43:45.617Z,100111.69
2023-05-16T01:45:15.910Z,100107.93
2023-05-16T01:46:22.415Z,100114.14
2023-05-16T01:47:27.296Z,100098.06
2023-05-16T01:48:35.887Z,100105.25
2023-05-16T01:49:44.650Z,100109.86
2023-05-16T01:50:53.493Z,100109.86
2023-05-16T01:51:59.249Z,100112.02
2023-05-16T01:53:10.769Z,100102.38
2023-05-16T01:54:16.589Z,100113.95
2023-05-16T01:55:22.312Z,100104.72
2023-05-16T01:56:25.521Z,100110.08
2023-05-16T01:57:28.610Z,100113.73
2023-05-16T01:58:33.410Z,100112.23
2023-05-16T01:59:36.202Z,100105.16
2023-05-16T02:00:40.952Z,100108.59
2023-05-16T02:01:43.451Z,100101.52
2023-05-16T02:02:46.427Z,100105.16
2023-05-16T02:03:48.923Z,100104.94
2023-05-16T02:04:51.260Z,100102.48
2023-05-16T02:05:53.316Z,100099.80
2023-05-16T02:06:56.591Z,100105.91
2023-05-16T02:07:59.594Z,100101.30
2023-05-16T02:09:01.939Z,100101.52
2023-05-16T02:10:04.859Z,100099.58
2023-05-16T02:11:09.034Z,100099.69
2023-05-16T02:12:12.378Z,100097.13
2023-05-16T02:13:14.677Z,100103.45
2023-05-16T02:14:17.070Z,100096.62
2023-05-16T02:15:19.429Z,100099.20
2023-05-16T02:16:22.034Z,100097.38
2023-05-16T02:17:24.172Z,100092.98
2023-05-16T02:18:26.271Z,100098.45
2023-05-16T02:19:28.475Z,100095.88
2023-05-16T02:20:30.837Z,100098.56
2023-05-16T02:21:33.098Z,100094.39
2023-05-16T02:22:35.815Z,100088.06
2023-05-16T02:23:38.301Z,100090.74
2023-05-16T02:24:40.580Z,100098.03
2023-05-16T02:25:43.095Z,100097.28
2023-05-16T02:26:45.609Z,100090.22
2023-05-16T02:27:47.868Z,100086.82
2023-05-16T02:28:50.104Z,100091.32
2023-05-16T02:29:52.120Z,100092.17
2023-05-16T02:31:01.117Z,100092.80
2023-05-16T02:32:03.410Z,100091.94
2023-05-16T02:33:05.590Z,100091.30
2023-05-16T02:34:08.223Z,100094.23
2023-05-16T02:35:10.998Z,100097.77
2023-05-16T02:36:13.439Z,100086.20
2023-05-16T02:37:17.549Z,100099.69
2023-05-16T02:38:19.770Z,100088.34
2023-05-16T02:39:22.084Z,100091.87
2023-05-16T02:40:26.696Z,100097.55
2023-05-16T02:41:29.165Z,100099.73
2023-05-16T02:42:31.110Z,100094.48
2023-05-16T02:43:33.584Z,100095.77
2023-05-16T02:44:35.721Z,100092.55
2023-05-16T02:45:38.013Z,100094.51
2023-05-16T02:46:40.252Z,100092.80
2023-05-16T02:47:42.682Z,100091.08
2023-05-16T02:48:44.891Z,100096.54
2023-05-16T02:49:47.052Z,100090.33
2023-05-16T02:50:49.480Z,100090.33
2023-05-16T02:51:51.615Z,100096.43
2023-05-16T02:52:53.856Z,100095.68
2023-05-16T02:53:55.914Z,100097.39
2023-05-16T02:55:09.998Z,100099.11
2023-05-16T02:56:03.147Z,100095.47
2023-05-16T02:57:05.507Z,100096.22
2023-05-16T02:58:07.550Z,100104.25
2023-05-16T02:59:10.981Z,100097.80
2023-05-16T03:00:18.515Z,100101.22
2023-05-16T03:01:20.732Z,100095.02
2023-05-16T03:02:23.043Z,100100.36
2023-05-16T03:03:25.162Z,100101.87
2023-05-16T03:04:27.392Z,100098.02
2023-05-16T03:05:29.935Z,100099.73
2023-05-16T03:06:32.423Z,100104.22
2023-05-16T03:07:35.645Z,100098.98
2023-05-16T03:08:39.698Z,100101.19
2023-05-16T03:09:42.239Z,100099.62
2023-05-16T03:10:44.381Z,100103.16
2023-05-16T03:11:46.874Z,100104.22
2023-05-16T03:12:49.035Z,100098.87
2023-05-16T03:13:51.205Z,100097.37
2023-05-16T03:14:53.359Z,100098.44
2023-05-16T03:15:55.708Z,100098.33
2023-05-16T03:16:59.240Z,100101.22
2023-05-16T03:18:01.947Z,100095.12
2023-05-16T03:19:05.300Z,100102.30
2023-05-16T03:20:10.519Z,100090.87
2023-05-16T03:21:12.828Z,100096.33
2023-05-16T03:22:15.103Z,100098.15
2023-05-16T03:23:20.124Z,100098.15
2023-05-16T03:24:22.234Z,100097.19
2023-05-16T03:25:24.568Z,100102.75
2023-05-16T03:26:26.800Z,100093.97
2023-05-16T03:27:28.994Z,100096.96
2023-05-16T03:28:31.724Z,100091.39
2023-05-16T03:29:34.494Z,100096.20
2023-05-16T03:30:36.695Z,100094.39
2023-05-16T03:31:38.616Z,100100.84
2023-05-16T03:32:40.740Z,100099.23
2023-05-16T03:33:43.330Z,100100.20
2023-05-16T03:34:45.581Z,100086.92
2023-05-16T03:35:47.961Z,100094.84
2023-05-16T03:36:50.666Z,100093.12
2023-05-16T03:37:52.841Z,100088.53
2023-05-16T03:38:55.376Z,100088.53
2023-05-16T03:39:57.706Z,100086.71
2023-05-16T03:41:00.402Z,100086.61
2023-05-16T03:42:02.704Z,100089.17
2023-05-16T03:43:04.924Z,100083.83
2023-05-16T03:44:07.558Z,100090.86
2023-05-16T03:45:10.638Z,100091.71
2023-05-16T03:46:12.937Z,100089.78
2023-05-16T03:47:15.165Z,100087.00
2023-05-16T03:48:17.340Z,100088.93
2023-05-16T03:49:22.369Z,100087.97
2023-05-16T03:50:24.561Z,100087.11
2023-05-16T03:51:26.800Z,100089.78
2023-05-16T03:52:28.940Z,100087.86
2023-05-16T03:53:30.958Z,100086.15
2023-05-16T03:54:33.075Z,100092.46
2023-05-16T03:55:35.832Z,100097.81
2023-05-16T03:56:38.109Z,100098.56
2023-05-16T03:57:41.076Z,100107.45
2023-05-16T03:58:43.278Z,100100.07
2023-05-16T03:59:45.334Z,100099.11
2023-05-16T04:00:47.477Z,100094.51
2023-05-16T04:01:50.270Z,100098.90
2023-05-16T04:02:52.890Z,100097.91
2023-05-16T04:03:55.441Z,100103.15
2023-05-16T04:04:57.969Z,100105.72
2023-05-16T04:06:00.251Z,100103.05
2023-05-16T04:07:02.674Z,100103.05
2023-05-16T04:08:04.865Z,100106.47
2023-05-16T04:09:07.082Z,100110.86
2023-05-16T04:10:11.114Z,100103.80
2023-05-16T04:11:13.248Z,100108.29
2023-05-16T04:12:15.349Z,100101.11
2023-05-16T04:13:17.892Z,100107.22
2023-05-16T04:14:20.360Z,100110.00
2023-05-16T04:15:24.550Z,100115.25
2023-05-16T04:16:27.331Z,100108.94
2023-05-16T04:17:29.390Z,100117.93
2023-05-16T04:18:31.608Z,100117.72
2023-05-16T04:19:33.875Z,100115.79
2023-05-16T04:20:36.053Z,100118.22
2023-05-16T04:21:38.172Z,100113.86
2023-05-16T04:22:40.307Z,100120.91
2023-05-16T04:23:42.485Z,100115.55
2023-05-16T04:24:44.650Z,100120.05
2023-05-16T04:25:47.045Z,100117.61
2023-05-16T04:26:49.178Z,100123.93
2023-05-16T04:27:51.276Z,100123.08
2023-05-16T04:28:53.924Z,100131.00
2023-05-16T04:29:55.992Z,100130.14
2023-05-16T04:30:58.428Z,100122.86
2023-05-16T04:32:00.732Z,100125.30
2023-05-16T04:33:02.900Z,100123.47
2023-05-16T04:34:05.275Z,100126.15
2023-05-16T04:35:07.705Z,100122.61
2023-05-16T04:36:10.716Z,100131.75
2023-05-16T04:37:12.763Z,100127.36
2023-05-16T04:38:15.385Z,100133.57
2023-05-16T04:39:17.891Z,100137.21
2023-05-16T04:40:20.177Z,100130.03
2023-05-16T04:41:22.414Z,100135.28
2023-05-16T04:42:24.477Z,100142.32
2023-05-16T04:43:26.535Z,100136.97
2023-05-16T04:44:28.554Z,100138.92
2023-05-16T04:45:31.226Z,100136.97
2023-05-16T04:46:33.423Z,100133.33
2023-05-16T04:47:35.689Z,100135.28
2023-05-16T04:48:38.505Z,100143.31
2023-05-16T04:49:40.712Z,100141.60
2023-05-16T04:50:42.907Z,100150.49
2023-05-16T04:51:45.136Z,100138.06
2023-05-16T04:52:47.539Z,100140.64
2023-05-16T04:53:49.449Z,100142.32
2023-05-16T04:54:51.457Z,100144.03
2023-05-16T04:55:54.401Z,100140.64
2023-05-16T04:56:57.148Z,100140.39
2023-05-16T04:57:59.288Z,100142.00
2023-05-16T04:59:01.752Z,100141.90
2023-05-16T05:00:06.244Z,100148.11
2023-05-16T05:01:08.942Z,100143.40
2023-05-16T05:02:11.810Z,100137.94
2023-05-16T05:04:19.556Z,100135.15
2023-05-16T05:05:22.065Z,100133.08
2023-05-16T05:06:24.360Z,100136.51
2023-05-16T05:07:26.530Z,100140.05
2023-05-16T05:08:28.664Z,100136.41
2023-05-16T05:09:30.839Z,100133.72
2023-05-16T05:10:33.080Z,100138.12
2023-05-16T05:11:35.200Z,100135.44
2023-05-16T05:12:38.050Z,100144.22
2023-05-16T05:13:40.257Z,100143.26
2023-05-16T05:14:42.435Z,100142.33
2023-05-16T05:15:44.937Z,100144.05
2023-05-16T05:16:47.119Z,100143.19
2023-05-16T05:17:49.742Z,100145.61
2023-05-16T05:18:52.057Z,100149.90
2023-05-16T05:19:54.918Z,100149.80
2023-05-16T05:20:57.166Z,100147.86
2023-05-16T05:21:59.288Z,100145.08
2023-05-16T05:23:01.454Z,100141.32
2023-05-16T05:24:04.346Z,100138.53
2023-05-16T05:25:07.524Z,100146.32
2023-05-16T05:26:10.525Z,100146.21
2023-05-16T05:27:12.893Z,100151.47
2023-05-16T05:28:14.850Z,100153.07
2023-05-16T05:29:16.723Z,100155.53
2023-05-16T05:31:11.367Z,100157.41
2023-05-16T05:32:14.079Z,100152.74
2023-05-16T05:33:17.368Z,100147.12
2023-05-16T05:34:19.662Z,100152.48
2023-05-16T05:35:22.214Z,100157.62
2023-05-16T05:36:24.380Z,100157.62
2023-05-16T05:37:27.592Z,100160.09
2023-05-16T05:38:29.795Z,100152.05
2023-05-16T05:39:31.981Z,100151.09
2023-05-16T05:40:34.146Z,100153.55
2023-05-16T05:41:37.287Z,100151.61
2023-05-16T05:42:39.777Z,100147.96
2023-05-16T05:43:41.802Z,100147.70
2023-05-16T05:44:43.999Z,100150.17
2023-05-16T05:45:46.389Z,100152.85
2023-05-16T05:46:48.598Z,100153.59
2023-05-16T05:47:50.972Z,100155.20
2023-05-16T05:48:53.162Z,100157.02
2023-05-16T05:49:55.404Z,100152.41
2023-05-16T05:50:57.662Z,100153.86
2023-05-16T05:51:59.816Z,100164.38
2023-05-16T05:53:02.321Z,100166.08
2023-05-16T05:54:04.453Z,100159.64
2023-05-16T05:55:06.939Z,100163.92
2023-05-16T05:56:10.495Z,100167.34
2023-05-16T05:57:13.079Z,100161.88
2023-05-16T05:58:15.148Z,100166.13
2023-05-16T05:59:17.314Z,100162.47
2023-05-16T06:00:19.627Z,100167.73
2023-05-16T06:01:21.775Z,100170.30
2023-05-16T06:02:24.070Z,100170.07
2023-05-16T06:03:26.297Z,100170.07
2023-05-16T06:04:28.369Z,100161.05
2023-05-16T06:05:30.801Z,100179.72
2023-05-16T06:06:34.525Z,100178.12
2023-05-16T06:07:36.871Z,100183.48
2023-05-16T06:08:39.106Z,100180.80
2023-05-16T06:09:41.910Z,100183.48
2023-05-16T06:10:45.208Z,100178.01
2023-05-16T06:11:47.418Z,100181.55
2023-05-16T06:12:49.996Z,100181.44
2023-05-16T06:13:52.277Z,100183.27
2023-05-16T06:14:54.454Z,100180.69
2023-05-16T06:15:56.533Z,100189.59
2023-05-16T06:16:58.786Z,100187.66
2023-05-16T06:18:01.113Z,100181.44
2023-05-16T06:19:03.475Z,100180.58
2023-05-16T06:20:09.380Z,100187.66
2023-05-16T06:21:11.843Z,100177.89
2023-05-16T06:22:14.017Z,100179.61
2023-05-16T06:23:16.166Z,100187.66
2023-05-16T06:24:18.612Z,100186.69
2023-05-16T06:25:20.755Z,100187.66
2023-05-16T06:26:22.780Z,100183.27
2023-05-16T06:27:25.459Z,100188.84
2023-05-16T06:28:27.568Z,100190.56
2023-05-16T06:29:30.252Z,100184.45
2023-05-16T06:30:32.409Z,100188.10
2023-05-16T06:31:34.594Z,100189.81
2023-05-16T06:32:36.824Z,100188.10
2023-05-16T06:33:39.091Z,100194.44
2023-05-16T06:34:41.986Z,100191.75
2023-05-16T06:35:44.166Z,100197.12
2023-05-16T06:36:46.728Z,100190.04
2023-05-16T06:37:48.893Z,100192.72
2023-05-16T06:38:51.393Z,100199.06
2023-05-16T06:39:53.667Z,100195.41
2023-05-16T06:40:55.923Z,100193.69
2023-05-16T06:41:58.023Z,100192.72
2023-05-16T06:43:00.217Z,100200.77
2023-05-16T06:44:02.383Z,100191.86
2023-05-16T06:45:06.496Z,100194.44
2023-05-16T06:46:09.082Z,100190.04
2023-05-16T06:47:11.367Z,100185.42
2023-05-16T06:48:14.131Z,100181.66
2023-05-16T06:49:16.374Z,100187.88
2023-05-16T06:50:19.805Z,100178.98
2023-05-16T06:51:21.955Z,100181.55
2023-05-16T06:52:25.728Z,100178.86
2023-05-16T06:53:27.918Z,100178.01
2023-05-16T06:54:30.468Z,100176.30
2023-05-16T06:55:35.760Z,100176.19
2023-05-16T06:56:38.155Z,100183.27
2023-05-16T06:57:40.328Z,100180.80
2023-05-16T06:58:42.341Z,100177.15
2023-05-16T06:59:45.468Z,100178.12
2023-05-16T07:00:52.340Z,100181.77
2023-05-16T07:01:57.894Z,100176.52
2023-05-16T07:03:20.176Z,100182.97
2023-05-16T07:04:25.297Z,100183.81
2023-05-16T07:05:45.371Z,100170.52
2023-05-16T07:06:56.280Z,100171.48
2023-05-16T07:08:07.068Z,100173.20
2023-05-16T07:09:09.573Z,100175.14
2023-05-16T07:10:17.892Z,100164.55
2023-05-16T07:11:23.539Z,100161.98
2023-05-16T07:12:37.635Z,100161.98
2023-05-16T07:13:43.957Z,100161.98
2023-05-16T07:14:51.025Z,100156.63
2023-05-16T07:15:57.081Z,100158.56
2023-05-16T07:17:02.267Z,100154.16
2023-05-16T07:18:06.714Z,100152.34
2023-05-16T07:19:10.411Z,100158.78
2023-05-16T07:20:21.844Z,100155.36
2023-05-16T07:21:35.749Z,100159.86
2023-05-16T07:22:41.879Z,100156.21
2023-05-16T07:23:46.480Z,100154.39
2023-05-16T07:24:52.928Z,100164.14
2023-05-16T07:26:00.396Z,100160.50
2023-05-16T07:27:07.843Z,100165.00
2023-05-16T07:28:14.924Z,100157.81
2023-05-16T07:29:20.014Z,100153.20
2023-05-16T07:30:24.685Z,100153.20
2023-05-16T07:31:30.079Z,100153.20
2023-05-16T07:32:36.612Z,100160.27
2023-05-16T07:33:44.134Z,100152.86
2023-05-16T07:34:53.269Z,100156.36
2023-05-16T07:36:14.786Z,100155.39
2023-05-16T07:37:05.607Z,100157.22
2023-05-16T07:38:15.020Z,100152.00
2023-05-16T07:39:18.298Z,100160.91
2023-05-16T07:40:24.881Z,100152.97
2023-05-16T07:41:31.101Z,100161.98
2023-05-16T07:42:37.732Z,100163.70
2023-05-16T07:43:45.690Z,100158.34
2023-05-16T07:44:53.178Z,100154.80
2023-05-16T07:45:55.839Z,100163.59
2023-05-16T07:47:02.658Z,100159.05
2023-05-16T07:48:06.920Z,100166.02
2023-05-16T07:49:10.730Z,100160.65
2023-05-16T07:50:15.846Z,100165.79
2023-05-16T07:51:27.570Z,100164.82
2023-05-16T07:52:33.088Z,100163.00
2023-05-16T07:53:42.286Z,100170.07
2023-05-16T07:54:47.280Z,100164.48
2023-05-16T07:55:56.833Z,100168.14
2023-05-16T07:57:05.824Z,100164.48
2023-05-16T07:58:21.053Z,100168.98
2023-05-16T07:59:26.266Z,100166.31
2023-05-16T08:00:31.220Z,100168.14
2023-05-16T08:01:38.216Z,100174.36
2023-05-16T08:02:45.540Z,100167.28
2023-05-16T08:03:53.653Z,100170.07
2023-05-16T08:05:02.197Z,100172.01
2023-05-16T08:06:08.681Z,100175.44
2023-05-16T08:07:11.424Z,100176.30
2023-05-16T08:08:19.664Z,100175.44
2023-05-16T08:09:22.417Z,100189.70
2023-05-16T08:10:33.543Z,100181.66
2023-05-16T08:11:41.194Z,100184.34
2023-05-16T08:12:50.451Z,100187.88
2023-05-16T08:13:53.872Z,100181.66
2023-05-16T08:15:02.287Z,100177.15
2023-05-16T08:16:08.609Z,100182.52
2023-05-16T08:17:14.104Z,100185.08
2023-05-16T08:18:16.616Z,100178.86
2023-05-16T08:19:19.624Z,100186.05
2023-05-16T08:20:22.257Z,100191.31
2023-05-16T08:21:24.620Z,100185.94
2023-05-16T08:22:27.107Z,100186.91
2023-05-16T08:23:29.295Z,100189.59
2023-05-16T08:24:31.628Z,100189.59
2023-05-16T08:25:33.969Z,100188.63
2023-05-16T08:26:36.345Z,100188.73
2023-05-16T08:27:38.676Z,100189.59
2023-05-16T08:28:41.394Z,100188.73
2023-05-16T08:29:44.370Z,100185.08
2023-05-16T08:30:48.011Z,100187.77
2023-05-16T08:31:51.159Z,100187.66
2023-05-16T08:32:53.876Z,100187.66
2023-05-16T08:33:56.168Z,100188.52
2023-05-16T08:34:59.710Z,100174.12
2023-05-16T08:36:02.028Z,100191.05
2023-05-16T08:37:04.722Z,100183.75
2023-05-16T08:38:06.561Z,100185.34
2023-05-16T08:39:09.520Z,100185.23
2023-05-16T08:40:12.356Z,100188.66
2023-05-16T08:41:14.616Z,100193.06
2023-05-16T08:42:17.137Z,100193.80
2023-05-16T08:43:19.729Z,100192.72
2023-05-16T08:44:22.203Z,100194.29
2023-05-16T08:45:25.801Z,100199.46
2023-05-16T08:46:29.399Z,100197.63
2023-05-16T08:47:32.500Z,100200.20
2023-05-16T08:48:37.321Z,100200.84
2023-05-16T08:49:41.448Z,100200.95
2023-05-16T08:50:43.866Z,100200.95
2023-05-16T08:51:47.795Z,100213.63
2023-05-16T08:52:52.418Z,100208.26
2023-05-16T08:54:01.831Z,100209.22
2023-05-16T08:55:10.715Z,100213.84
2023-05-16T08:56:12.769Z,100224.66
2023-05-16T08:57:16.445Z,100216.87
2023-05-16T08:58:19.605Z,100226.00
2023-05-16T08:59:22.600Z,100222.46
2023-05-16T09:00:26.323Z,100226.23
2023-05-16T09:01:30.702Z,100216.34
2023-05-16T09:02:33.304Z,100202.83
2023-05-16T09:03:38.393Z,100197.45
2023-05-16T09:04:42.049Z,100207.11
2023-05-16T09:05:44.534Z,100202.34
2023-05-16T09:06:47.717Z,100196.97
2023-05-16T09:07:50.126Z,100195.06
2023-05-16T09:08:53.209Z,100198.69
2023-05-16T09:09:55.957Z,100202.14
2023-05-16T09:10:58.414Z,100194.09
2023-05-16T09:12:01.316Z,100186.05
2023-05-16T09:13:03.467Z,100186.78
2023-05-16T09:14:06.220Z,100177.02
2023-05-16T09:15:09.711Z,100173.48
2023-05-16T09:16:17.602Z,100183.47
2023-05-16T09:17:28.546Z,100163.72
2023-05-16T09:18:25.050Z,100171.66
2023-05-16T09:19:31.183Z,100166.29
2023-05-16T09:20:33.727Z,100170.91
2023-05-16T09:21:35.973Z,100163.80
2023-05-16T09:22:38.744Z,100162.01
2023-05-16T09:23:42.592Z,100152.13
2023-05-16T09:24:46.132Z,100152.02
2023-05-16T09:25:52.001Z,100152.13
2023-05-16T09:26:54.356Z,100152.13
2023-05-16T09:27:58.037Z,100148.47
2023-05-16T09:29:00.382Z,100153.84
2023-05-16T09:30:03.727Z,100145.91
2023-05-16T09:32:31.050Z,100148.61
2023-05-16T09:33:33.370Z,100154.81
2023-05-16T09:34:41.484Z,100157.50
2023-05-16T09:35:45.664Z,100152.13
2023-05-16T09:36:51.996Z,100153.84
2023-05-16T09:37:54.605Z,100162.75
2023-05-16T09:38:56.918Z,100155.44
2023-05-16T09:39:59.137Z,100158.98
2023-05-16T09:41:02.107Z,100159.84
2023-05-16T09:42:04.691Z,100157.04
2023-05-16T09:43:07.387Z,100158.75
2023-05-16T09:44:10.151Z,100156.81
2023-05-16T09:45:14.332Z,100162.17
2023-05-16T09:46:17.397Z,100155.69
2023-05-16T09:47:21.482Z,100152.89
2023-05-16T09:48:23.838Z,100151.92
2023-05-16T09:49:26.161Z,100151.80
2023-05-16T09:50:30.050Z,100149.75
2023-05-16T09:51:32.464Z,100147.80
2023-05-16T09:52:34.633Z,100152.08
2023-05-16T09:53:37.774Z,100148.28
2023-05-16T09:54:40.180Z,100154.39
2023-05-16T09:55:43.036Z,100155.01
2023-05-16T09:56:50.045Z,100157.47
2023-05-16T09:57:52.375Z,100158.09
2023-05-16T09:58:54.803Z,100159.65
2023-05-16T09:59:59.354Z,100158.56
2023-05-16T10:01:02.482Z,100159.30
2023-05-16T10:02:06.617Z,100162.61
2023-05-16T10:03:09.711Z,100166.15
2023-05-16T10:04:12.267Z,100157.86
2023-05-16T10:05:14.505Z,100161.25
2023-05-16T10:06:18.734Z,100169.07
2023-05-16T10:07:22.637Z,100160.03
2023-05-16T10:08:26.283Z,100163.46
2023-05-16T10:09:32.065Z,100155.28
2023-05-16T10:10:37.849Z,100164.94
2023-05-16T10:11:42.682Z,100171.05
2023-05-16T10:12:45.547Z,100167.23
2023-05-16T10:13:50.801Z,100166.14
2023-05-16T10:14:53.763Z,100177.62
2023-05-16T10:15:58.010Z,100175.68
2023-05-16T10:17:00.616Z,100175.56
2023-05-16T10:18:03.958Z,100167.38
2023-05-16T10:19:07.362Z,100178.72
2023-05-16T10:20:12.554Z,100167.97
2023-05-16T10:21:17.430Z,100166.02
2023-05-16T10:22:23.404Z,100173.10
2023-05-16T10:23:27.385Z,100169.32
2023-05-16T10:24:33.251Z,100160.41
2023-05-16T10:25:39.189Z,100170.05
2023-05-16T10:26:41.568Z,100167.37
2023-05-16T10:27:45.289Z,100158.45
2023-05-16T10:28:48.001Z,100165.53
2023-05-16T10:29:54.584Z,100162.97
2023-05-16T10:30:57.522Z,100156.62
2023-05-16T10:32:00.771Z,100163.70
2023-05-16T10:33:03.819Z,100161.88
2023-05-16T10:34:06.852Z,100160.04
2023-05-16T10:35:10.068Z,100161.02
2023-05-16T10:36:14.038Z,100157.36
2023-05-16T10:37:16.796Z,100156.50
2023-05-16T10:38:21.165Z,100152.09
2023-05-16T10:39:24.590Z,100159.30
2023-05-16T10:40:29.000Z,100161.88
2023-05-16T10:41:33.584Z,100159.92
2023-05-16T10:42:37.047Z,100158.09
2023-05-16T10:43:39.717Z,100156.26
2023-05-16T10:44:51.501Z,100160.78
2023-05-16T10:45:50.863Z,100153.57
2023-05-16T10:46:53.768Z,100160.78
2023-05-16T10:49:24.384Z,100159.81
2023-05-16T10:50:39.142Z,100160.78
2023-05-16T10:51:44.155Z,100163.34
2023-05-16T10:52:46.900Z,100159.92
2023-05-16T10:53:54.090Z,100157.23
2023-05-16T10:54:56.386Z,100151.00
2023-05-16T10:56:02.728Z,100148.31
2023-05-16T10:57:07.756Z,100148.31
2023-05-16T10:58:10.675Z,100156.38
2023-05-16T10:59:26.490Z,100157.36
2023-05-16T11:00:30.229Z,100157.59
2023-05-16T11:01:34.152Z,100150.51
2023-05-16T11:02:41.472Z,100157.84
2023-05-16T11:04:02.056Z,100153.70
2023-05-16T11:05:07.116Z,100156.63
2023-05-16T11:06:10.899Z,100153.33
2023-05-16T11:07:14.756Z,100161.63
2023-05-16T11:08:17.601Z,100158.47
2023-05-16T11:09:26.208Z,100162.02
2023-05-16T11:10:28.688Z,100155.91
2023-05-16T11:11:48.613Z,100165.80
2023-05-16T11:12:51.632Z,100165.91
2023-05-16T11:13:55.359Z,100161.75
2023-05-16T11:14:58.025Z,100172.49
2023-05-16T11:16:28.182Z,100165.41
2023-05-16T11:17:34.157Z,100160.89
2023-05-16T11:18:40.042Z,100154.66
2023-05-16T11:21:00.662Z,100161.28
2023-05-16T11:22:12.014Z,100155.17
2023-05-16T11:23:20.019Z,100151.48
2023-05-16T11:24:29.833Z,100155.17
2023-05-16T11:25:36.585Z,100160.54
2023-05-16T11:26:40.059Z,100164.20
2023-05-16T11:27:47.980Z,100153.45
2023-05-16T11:28:50.992Z,100167.00
2023-05-16T11:29:56.016Z,100163.46
2023-05-16T11:30:59.548Z,100161.75
2023-05-16T11:32:04.353Z,100157.23
2023-05-16T11:33:08.021Z,100162.72
2023-05-16T11:34:11.006Z,100151.98
2023-05-16T11:35:15.489Z,100148.55
2023-05-16T11:36:18.056Z,100148.55
2023-05-16T11:37:20.569Z,100150.27
2023-05-16T11:38:22.886Z,100147.70
2023-05-16T11:39:25.676Z,100149.53
2023-05-16T11:40:27.962Z,100145.13
2023-05-16T11:41:32.261Z,100152.22
2023-05-16T11:42:37.097Z,100151.36
2023-05-16T11:43:44.878Z,100159.30
2023-05-16T11:44:49.105Z,100150.50
2023-05-16T11:47:09.573Z,100159.53
2023-05-16T11:49:28.941Z,100157.86
2023-05-16T11:50:34.044Z,100160.50
2023-05-16T11:51:43.001Z,100162.22
2023-05-16T11:52:55.034Z,100156.73
2023-05-16T11:53:57.859Z,100164.67
2023-05-16T11:55:08.379Z,100168.33
2023-05-16T11:56:12.885Z,100161.02
2023-05-16T11:57:17.341Z,100167.23
2023-05-16T11:58:21.673Z,100162.61
2023-05-16T11:59:25.872Z,100170.55
2023-05-16T12:00:28.752Z,100168.59
2023-05-16T12:01:36.089Z,100162.22
2023-05-16T12:02:42.151Z,100162.95
2023-05-16T12:03:56.862Z,100167.36
2023-05-16T12:05:10.490Z,100161.98
2023-05-16T12:06:14.948Z,100163.70
2023-05-16T12:08:27.161Z,100152.24
2023-05-16T12:09:29.353Z,100157.47
2023-05-16T12:10:34.557Z,100152.95
2023-05-16T12:11:41.217Z,100153.81
2023-05-16T12:12:47.412Z,100151.00
2023-05-16T12:13:51.857Z,100155.64
2023-05-16T12:14:54.044Z,100149.30
2023-05-16T12:15:56.465Z,100144.89
2023-05-16T12:17:01.348Z,100147.58
2023-05-16T12:18:05.016Z,100150.38
2023-05-16T12:19:08.672Z,100145.02
2023-05-16T12:20:12.563Z,100150.38
2023-05-16T12:21:17.157Z,100156.61
2023-05-16T12:22:24.505Z,100152.09
2023-05-16T12:23:26.866Z,100156.50
2023-05-16T12:24:30.472Z,100158.20
2023-05-16T12:25:34.159Z,100156.38
2023-05-16T12:26:39.408Z,100157.23